Time;durP1;ratioP1;P1;durP2;ratioP2;P2;SDS_P1;SDS_P2;PMS_P1;PMS_P2;Temp;Humidity;BMP_temperature;BMP_pressure;BME280_temperature;BME280_humidity;BME280_pressure;Samples;Min_cycle;Max_cycle;Signal;HPM_P1;HPM_P2
2022/10/16 00:01:36;;;;;;;13.30;1.90;;;12.60;99.90;;;;;;5082724;28;20047;-76
2022/10/16 00:04:02;;;;;;;7.10;3.22;;;12.60;99.90;;;;;;5103140;28;20133;-76
2022/10/16 00:06:29;;;;;;;9.25;2.05;;;12.60;99.90;;;;;;5065212;28;20038;-76
2022/10/16 00:08:55;;;;;;;10.02;2.08;;;13.00;99.90;;;;;;5095672;28;20027;-75
2022/10/16 00:11:24;;;;;;;4.68;1.83;;;12.80;99.90;;;;;;5089225;28;20106;-76
2022/10/16 00:13:51;;;;;;;4.85;1.80;;;12.60;99.90;;;;;;5097916;28;20032;-76
2022/10/16 00:16:18;;;;;;;5.38;2.08;;;12.60;99.90;;;;;;5082634;28;20046;-77
2022/10/16 00:18:43;;;;;;;6.53;2.42;;;12.60;99.90;;;;;;5095201;28;20306;-76
2022/10/16 00:21:24;;;;;;;5.50;1.80;;;12.70;99.90;;;;;;5082139;28;20032;-77
2022/10/16 00:23:52;;;;;;;4.68;2.13;;;12.80;99.90;;;;;;5084328;28;20036;-77
2022/10/16 00:26:18;;;;;;;6.10;2.05;;;12.50;99.90;;;;;;5089619;28;20105;-75
2022/10/16 00:28:49;;;;;;;5.13;1.95;;;12.50;99.90;;;;;;5097264;28;20047;-77
2022/10/16 00:31:15;;;;;;;9.27;2.00;;;12.50;99.90;;;;;;5094326;28;20046;-76
2022/10/16 00:33:41;;;;;;;5.85;2.08;;;12.80;99.90;;;;;;5081646;28;20322;-77
2022/10/16 00:36:10;;;;;;;3.92;1.63;;;12.80;99.90;;;;;;5097606;28;20039;-75
2022/10/16 00:38:37;;;;;;;4.72;1.88;;;12.70;99.90;;;;;;5097346;28;20051;-76
2022/10/16 00:41:04;;;;;;;4.25;1.85;;;12.50;99.90;;;;;;5089703;28;20040;-76
2022/10/16 00:43:43;;;;;;;4.93;1.80;;;12.60;99.90;;;;;;5104874;28;20036;-77
2022/10/16 00:46:21;;;;;;;5.43;2.13;;;12.70;99.90;;;;;;5098563;28;20089;-77
2022/10/16 00:49:09;;;;;;;6.00;2.22;;;12.60;99.90;;;;;;5098770;28;20035;-78
2022/10/16 00:51:40;;;;;;;7.10;2.05;;;12.70;99.90;;;;;;5099716;28;20179;-77
2022/10/16 00:54:26;;;;;;;8.95;2.40;;;12.70;99.90;;;;;;5106115;28;20037;-77
2022/10/16 00:56:52;;;;;;;3.97;2.20;;;12.70;99.90;;;;;;5079802;28;20247;-77
2022/10/16 00:59:24;;;;;;;3.92;2.20;;;12.50;99.90;;;;;;5082261;28;20108;-76
2022/10/16 01:01:51;;;;;;;8.95;2.45;;;12.70;99.90;;;;;;5090983;28;20020;-77
2022/10/16 01:04:17;;;;;;;6.88;2.00;;;12.40;99.90;;;;;;5083152;28;20028;-78
2022/10/16 01:07:09;;;;;;;6.85;2.05;;;12.70;99.90;;;;;;5067422;28;20036;-78
2022/10/16 01:09:46;;;;;;;7.07;2.08;;;12.70;99.90;;;;;;5090670;28;20032;-78
2022/10/16 01:12:18;;;;;;;7.40;2.05;;;12.40;99.90;;;;;;5075736;28;20044;-78
2022/10/16 01:14:55;;;;;;;4.22;2.20;;;12.50;99.90;;;;;;5085955;28;20311;-77
2022/10/16 01:17:36;;;;;;;5.70;1.63;;;12.60;99.90;;;;;;5093249;28;20040;-78
2022/10/16 01:20:24;;;;;;;5.30;1.90;;;12.70;99.90;;;;;;5108272;28;20643;-78
2022/10/16 01:23:29;;;;;;;6.18;1.98;;;12.60;99.90;;;;;;5099287;28;20093;-79
2022/10/16 01:26:38;;;;;;;4.17;1.80;;;12.50;99.90;;;;;;5082247;28;20054;-79
2022/10/16 01:29:20;;;;;;;3.33;1.60;;;12.50;99.90;;;;;;5100751;28;20032;-78
2022/10/16 01:31:55;;;;;;;5.80;1.80;;;12.80;99.90;;;;;;5103447;28;20334;-78
2022/10/16 01:34:33;;;;;;;6.13;1.98;;;12.80;99.90;;;;;;5085833;28;20120;-78
2022/10/16 01:37:13;;;;;;;5.68;1.70;;;12.50;99.90;;;;;;5102818;28;20111;-77
2022/10/16 01:39:42;;;;;;;3.65;1.42;;;12.70;99.90;;;;;;5085116;28;20055;-77
2022/10/16 01:42:22;;;;;;;2.65;1.50;;;12.80;99.90;;;;;;5083510;28;20031;-78
2022/10/16 01:44:49;;;;;;;4.72;2.00;;;12.70;99.90;;;;;;5100643;28;20040;-78
2022/10/16 01:47:17;;;;;;;5.18;1.85;;;12.80;99.90;;;;;;5101864;28;20342;-78
2022/10/16 01:49:44;;;;;;;4.00;1.70;;;12.60;99.90;;;;;;5065548;28;20035;-78
2022/10/16 01:52:15;;;;;;;5.32;1.65;;;12.60;99.90;;;;;;5103164;28;20036;-77
2022/10/16 01:54:44;;;;;;;6.88;1.92;;;12.60;99.90;;;;;;5111976;28;20259;-77
2022/10/16 01:57:14;;;;;;;3.30;1.67;;;12.80;99.90;;;;;;5106882;28;20232;-78
2022/10/16 01:59:44;;;;;;;4.28;1.60;;;12.90;99.90;;;;;;5085751;28;20032;-78
2022/10/16 02:02:12;;;;;;;4.45;1.80;;;12.70;99.90;;;;;;5099984;28;20078;-78
2022/10/16 02:04:43;;;;;;;4.70;1.50;;;12.90;99.90;;;;;;5086536;28;20023;-78
2022/10/16 02:07:09;;;;;;;4.75;2.20;;;12.60;99.90;;;;;;5103787;28;20109;-77
2022/10/16 02:09:35;;;;;;;3.45;1.75;;;12.60;99.90;;;;;;5083659;28;20032;-77
2022/10/16 02:12:09;;;;;;;5.50;1.63;;;12.60;99.90;;;;;;5107928;28;20039;-77
2022/10/16 02:14:38;;;;;;;4.97;1.70;;;12.80;99.90;;;;;;5085322;28;20035;-77
2022/10/16 02:17:17;;;;;;;3.60;1.50;;;12.60;99.90;;;;;;5108652;28;20184;-77
2022/10/16 02:19:46;;;;;;;3.83;1.65;;;12.60;99.90;;;;;;5096858;28;20054;-77
2022/10/16 02:22:36;;;;;;;4.85;1.65;;;12.70;99.90;;;;;;5080826;28;20157;-77
2022/10/16 02:25:10;;;;;;;5.90;1.75;;;12.80;99.90;;;;;;5105322;28;20118;-77
2022/10/16 02:27:51;;;;;;;6.30;2.15;;;12.70;99.90;;;;;;5103862;28;20046;-77
2022/10/16 02:30:34;;;;;;;2.50;1.58;;;12.70;99.90;;;;;;5096729;28;20036;-77
2022/10/16 02:33:05;;;;;;;4.38;1.50;;;12.90;99.90;;;;;;5104382;28;20051;-77
2022/10/16 02:35:31;;;;;;;5.47;1.58;;;12.70;99.90;;;;;;5099213;28;20043;-77
2022/10/16 02:37:58;;;;;;;4.78;1.52;;;12.70;99.90;;;;;;5094417;28;20079;-78
2022/10/16 02:40:25;;;;;;;3.25;1.60;;;12.70;99.90;;;;;;5084073;28;20192;-77
2022/10/16 02:42:52;;;;;;;4.15;1.60;;;12.80;99.90;;;;;;5100247;28;20028;-77
2022/10/16 02:45:18;;;;;;;3.10;1.70;;;12.90;99.90;;;;;;5093173;28;20040;-76
2022/10/16 02:47:44;;;;;;;6.05;1.70;;;12.80;99.90;;;;;;5102940;28;20081;-76
2022/10/16 02:50:10;;;;;;;3.55;1.30;;;12.70;99.90;;;;;;5085417;28;20027;-77
2022/10/16 02:52:35;;;;;;;4.28;2.13;;;12.90;99.90;;;;;;5099630;28;20039;-75
2022/10/16 02:55:01;;;;;;;4.63;1.70;;;12.90;99.90;;;;;;5105894;28;20030;-78
2022/10/16 02:57:27;;;;;;;5.70;1.60;;;12.80;99.90;;;;;;5086063;28;20046;-76
2022/10/16 02:59:53;;;;;;;3.30;1.50;;;12.80;99.90;;;;;;5105297;28;20081;-76
2022/10/16 03:02:19;;;;;;;5.53;1.42;;;13.00;99.90;;;;;;5088169;28;20051;-75
2022/10/16 03:04:44;;;;;;;5.88;1.95;;;13.00;99.90;;;;;;5084978;28;20023;-75
2022/10/16 03:07:10;;;;;;;2.75;1.67;;;13.00;99.90;;;;;;5099637;28;20099;-75
2022/10/16 03:09:36;;;;;;;5.22;1.50;;;12.80;99.90;;;;;;5063441;28;20350;-75
2022/10/16 03:12:01;;;;;;;3.20;1.70;;;12.90;99.90;;;;;;5082965;28;20103;-76
2022/10/16 03:14:27;;;;;;;4.03;1.63;;;12.80;99.90;;;;;;5100431;28;20032;-76
2022/10/16 03:16:52;;;;;;;4.25;1.60;;;13.00;99.90;;;;;;5083643;28;20508;-76
2022/10/16 03:19:18;;;;;;;6.35;1.77;;;13.00;99.90;;;;;;5104308;28;20080;-76
2022/10/16 03:21:44;;;;;;;3.60;1.60;;;13.00;99.90;;;;;;5084516;28;20200;-76
2022/10/16 03:24:10;;;;;;;2.25;1.73;;;12.90;99.90;;;;;;5086393;28;20040;-74
2022/10/16 03:26:36;;;;;;;5.07;1.63;;;12.80;99.90;;;;;;5093075;28;20121;-75
2022/10/16 03:29:03;;;;;;;5.25;1.60;;;12.80;99.90;;;;;;5069608;28;20064;-76
2022/10/16 03:31:29;;;;;;;6.03;1.55;;;12.80;99.90;;;;;;5096352;28;20032;-76
2022/10/16 03:33:55;;;;;;;3.95;2.00;;;12.90;99.90;;;;;;5100277;28;20468;-75
2022/10/16 03:36:20;;;;;;;2.30;1.42;;;12.90;99.90;;;;;;5057043;28;20032;-74
2022/10/16 03:38:46;;;;;;;3.15;1.85;;;12.90;99.90;;;;;;5096974;28;20239;-75
2022/10/16 03:41:12;;;;;;;4.13;1.83;;;12.90;99.90;;;;;;5077354;28;20294;-76
2022/10/16 03:43:37;;;;;;;2.78;1.58;;;12.80;99.90;;;;;;5098399;28;20032;-75
2022/10/16 03:46:03;;;;;;;2.10;1.42;;;12.90;99.90;;;;;;5069755;28;20032;-76
2022/10/16 03:48:29;;;;;;;5.70;1.88;;;12.70;99.90;;;;;;5100440;28;20095;-75
2022/10/16 03:50:55;;;;;;;3.13;1.90;;;12.90;99.90;;;;;;5095466;28;21228;-74
2022/10/16 03:53:21;;;;;;;4.15;1.52;;;12.80;99.90;;;;;;5083562;28;20067;-76
2022/10/16 03:55:46;;;;;;;3.95;1.90;;;12.80;99.90;;;;;;5080607;28;20091;-75
2022/10/16 03:58:12;;;;;;;5.10;1.80;;;12.80;99.90;;;;;;5083462;28;20040;-74
2022/10/16 04:00:42;;;;;;;4.25;1.88;;;12.70;99.90;;;;;;5082003;28;20210;-74
2022/10/16 04:03:08;;;;;;;4.82;1.83;;;12.80;99.90;;;;;;5088548;28;20020;-74
2022/10/16 04:05:34;;;;;;;2.35;1.67;;;12.70;99.90;;;;;;5098991;28;20035;-74
2022/10/16 04:08:00;;;;;;;4.65;2.00;;;12.90;99.90;;;;;;5072594;28;20024;-73
2022/10/16 04:10:25;;;;;;;5.22;1.90;;;12.80;99.90;;;;;;5081513;28;20035;-74
2022/10/16 04:12:51;;;;;;;3.05;1.50;;;12.90;99.90;;;;;;5087518;28;20032;-74
2022/10/16 04:15:17;;;;;;;3.38;2.08;;;12.70;99.90;;;;;;5080801;28;20176;-74
2022/10/16 04:17:42;;;;;;;4.10;2.00;;;12.80;99.90;;;;;;5090028;28;20047;-75
2022/10/16 04:20:08;;;;;;;5.38;1.90;;;12.80;99.90;;;;;;5098224;28;20046;-74
2022/10/16 04:22:34;;;;;;;3.03;1.60;;;12.80;99.90;;;;;;5086558;28;20077;-75
2022/10/16 04:24:59;;;;;;;5.32;2.00;;;12.80;99.90;;;;;;5084889;28;20039;-75
2022/10/16 04:27:25;;;;;;;4.88;1.70;;;12.70;99.90;;;;;;5080702;28;20047;-74
2022/10/16 04:29:51;;;;;;;3.85;1.80;;;12.80;99.90;;;;;;5085331;28;20107;-74
2022/10/16 04:32:17;;;;;;;3.33;2.00;;;12.70;99.90;;;;;;5082445;28;20027;-75
2022/10/16 04:34:42;;;;;;;3.38;1.75;;;12.50;99.90;;;;;;5097990;28;20048;-75
2022/10/16 04:37:08;;;;;;;2.25;1.60;;;12.50;99.90;;;;;;5083120;28;20040;-74
2022/10/16 04:39:34;;;;;;;2.85;1.70;;;12.60;99.90;;;;;;5100147;28;20036;-73
2022/10/16 04:42:00;;;;;;;4.90;2.13;;;12.70;99.90;;;;;;5085459;28;20107;-74
2022/10/16 04:44:25;;;;;;;5.55;2.00;;;12.50;99.90;;;;;;5077878;28;20082;-74
2022/10/16 04:46:51;;;;;;;3.55;1.65;;;12.70;99.90;;;;;;5066810;28;20040;-73
2022/10/16 04:49:17;;;;;;;3.45;1.52;;;12.60;99.90;;;;;;5082511;28;20064;-75
2022/10/16 04:51:43;;;;;;;2.42;1.75;;;12.50;99.90;;;;;;5093142;28;20263;-75
2022/10/16 04:54:09;;;;;;;3.65;2.05;;;12.80;99.90;;;;;;5080726;28;20062;-74
2022/10/16 04:56:42;;;;;;;6.30;1.50;;;12.80;99.90;;;;;;5082171;28;20044;-73
2022/10/16 04:59:08;;;;;;;4.25;2.00;;;12.70;99.90;;;;;;5084684;28;20043;-73
2022/10/16 05:01:34;;;;;;;4.53;1.77;;;12.60;99.90;;;;;;5093740;28;20028;-74
2022/10/16 05:04:00;;;;;;;4.07;2.15;;;12.80;99.90;;;;;;5087621;28;20032;-73
2022/10/16 05:06:25;;;;;;;5.40;1.92;;;13.00;99.90;;;;;;5104963;28;20246;-74
2022/10/16 05:08:51;;;;;;;4.95;2.08;;;12.80;99.90;;;;;;5106927;28;20105;-75
2022/10/16 05:11:17;;;;;;;4.93;1.58;;;12.80;99.90;;;;;;5085367;28;20032;-75
2022/10/16 05:13:42;;;;;;;5.22;2.05;;;13.00;99.90;;;;;;5103501;28;20036;-75
2022/10/16 05:16:08;;;;;;;3.13;2.00;;;12.80;99.90;;;;;;5085060;28;20024;-75
2022/10/16 05:18:34;;;;;;;7.68;3.03;;;13.00;99.90;;;;;;5090899;28;20040;-75
2022/10/16 05:20:59;;;;;;;4.82;1.88;;;12.80;99.90;;;;;;5085250;28;20060;-75
2022/10/16 05:23:25;;;;;;;3.70;2.13;;;12.90;99.90;;;;;;5090620;28;20069;-75
2022/10/16 05:25:57;;;;;;;4.35;2.10;;;12.90;99.90;;;;;;5101533;28;20028;-74
2022/10/16 05:28:27;;;;;;;4.93;2.28;;;13.10;99.90;;;;;;5100763;28;20349;-74
2022/10/16 05:30:53;;;;;;;6.95;2.33;;;12.80;99.90;;;;;;5072822;28;20198;-74
2022/10/16 05:33:24;;;;;;;4.18;2.25;;;12.80;99.90;;;;;;5069178;28;20032;-74
2022/10/16 05:35:51;;;;;;;5.50;2.20;;;13.00;99.90;;;;;;5103097;28;20063;-76
2022/10/16 05:38:17;;;;;;;3.58;2.30;;;13.10;99.90;;;;;;5085805;28;20103;-74
2022/10/16 05:40:43;;;;;;;5.30;2.42;;;12.80;99.90;;;;;;5101567;28;20032;-75
2022/10/16 05:43:09;;;;;;;3.88;2.30;;;12.80;99.90;;;;;;5097039;28;20083;-73
2022/10/16 05:45:34;;;;;;;3.97;2.83;;;13.00;99.90;;;;;;5087508;28;20249;-73
2022/10/16 05:48:00;;;;;;;6.60;2.42;;;12.90;99.90;;;;;;5109895;28;20119;-74
2022/10/16 05:50:27;;;;;;;5.05;2.47;;;13.10;99.90;;;;;;5084723;28;20103;-74
2022/10/16 05:52:53;;;;;;;2.83;2.20;;;13.00;99.90;;;;;;5108748;28;20035;-72
2022/10/16 05:55:18;;;;;;;3.75;2.42;;;13.10;99.90;;;;;;5093300;28;20035;-74
2022/10/16 05:57:44;;;;;;;6.15;2.83;;;13.10;99.90;;;;;;5068851;28;20252;-74
2022/10/16 06:00:10;;;;;;;5.05;2.40;;;12.90;99.90;;;;;;5084755;28;20172;-75
2022/10/16 06:02:36;;;;;;;3.22;2.17;;;13.00;99.90;;;;;;5070407;28;20091;-76
2022/10/16 06:05:01;;;;;;;5.63;2.60;;;13.10;99.90;;;;;;5100602;28;20307;-76
2022/10/16 06:07:27;;;;;;;3.47;2.50;;;13.10;99.90;;;;;;5102828;28;20326;-75
2022/10/16 06:09:53;;;;;;;6.90;2.70;;;13.10;99.90;;;;;;5090433;28;20031;-77
2022/10/16 06:12:20;;;;;;;5.85;2.67;;;13.10;99.90;;;;;;5104830;28;20036;-76
2022/10/16 06:14:49;;;;;;;4.30;2.70;;;13.10;99.90;;;;;;5060427;28;20104;-76
2022/10/16 06:17:15;;;;;;;4.38;2.63;;;12.90;99.90;;;;;;5101930;28;20036;-76
2022/10/16 06:19:41;;;;;;;3.95;2.45;;;13.00;99.90;;;;;;5086059;28;20040;-76
2022/10/16 06:22:07;;;;;;;4.78;2.53;;;13.00;99.90;;;;;;5089550;28;20058;-74
2022/10/16 06:24:32;;;;;;;4.55;2.63;;;13.20;99.90;;;;;;5101237;28;20043;-76
2022/10/16 06:26:58;;;;;;;5.35;2.72;;;13.20;99.90;;;;;;5090955;28;20195;-75
2022/10/16 06:29:24;;;;;;;3.92;2.42;;;13.20;99.90;;;;;;5070339;28;20316;-77
2022/10/16 06:31:49;;;;;;;5.30;2.50;;;13.20;99.90;;;;;;5099072;28;20313;-75
2022/10/16 06:34:15;;;;;;;5.20;2.88;;;13.20;99.90;;;;;;5067162;28;20065;-73
2022/10/16 06:36:43;;;;;;;5.70;3.13;;;13.20;99.90;;;;;;5083854;28;20045;-74
2022/10/16 06:39:08;;;;;;;4.72;2.65;;;13.30;99.90;;;;;;5100452;28;20107;-74
2022/10/16 06:41:34;;;;;;;4.15;2.60;;;13.10;99.90;;;;;;5075280;28;20032;-74
2022/10/16 06:44:00;;;;;;;5.60;2.33;;;13.10;99.90;;;;;;5101096;28;20040;-75
2022/10/16 06:46:27;;;;;;;4.05;2.40;;;13.10;99.90;;;;;;5102792;28;20031;-74
2022/10/16 06:48:53;;;;;;;3.22;2.63;;;13.40;99.90;;;;;;5074144;28;20027;-74
2022/10/16 06:51:21;;;;;;;3.33;2.33;;;13.20;99.90;;;;;;5100740;28;20072;-75
2022/10/16 06:53:53;;;;;;;4.80;2.25;;;13.40;99.90;;;;;;5096920;28;20031;-77
2022/10/16 06:56:25;;;;;;;5.68;2.45;;;13.50;99.90;;;;;;5082960;28;20039;-75
2022/10/16 06:58:52;;;;;;;4.60;2.72;;;13.30;99.90;;;;;;5079485;28;20043;-75
2022/10/16 07:01:21;;;;;;;4.78;2.10;;;13.70;99.90;;;;;;5096107;28;20105;-75
2022/10/16 07:03:47;;;;;;;6.70;2.28;;;13.40;99.90;;;;;;5083121;28;20020;-74
2022/10/16 07:06:16;;;;;;;6.13;2.30;;;13.70;99.90;;;;;;5080861;28;20096;-74
2022/10/16 07:08:43;;;;;;;6.50;2.28;;;13.70;99.90;;;;;;5097084;28;20953;-72
2022/10/16 07:11:12;;;;;;;5.47;1.88;;;13.40;99.90;;;;;;5083469;28;20042;-76
2022/10/16 07:13:43;;;;;;;4.90;2.20;;;13.40;99.90;;;;;;5095923;28;20263;-76
2022/10/16 07:16:17;;;;;;;6.22;2.30;;;13.60;99.90;;;;;;5107650;28;20024;-77
2022/10/16 07:18:45;;;;;;;3.97;2.00;;;13.60;99.90;;;;;;5100375;28;20270;-74
2022/10/16 07:21:19;;;;;;;6.40;2.10;;;13.40;99.90;;;;;;5090745;28;20104;-74
2022/10/16 07:23:44;;;;;;;5.57;2.20;;;13.50;99.90;;;;;;5079737;28;20099;-75
2022/10/16 07:26:11;;;;;;;7.82;2.42;;;13.70;99.90;;;;;;5097983;28;20040;-75
2022/10/16 07:28:37;;;;;;;5.43;2.25;;;13.60;99.90;;;;;;5098218;28;20196;-75
2022/10/16 07:31:08;;;;;;;4.43;2.30;;;13.50;99.90;;;;;;5067824;28;20055;-75
2022/10/16 07:33:34;;;;;;;3.80;2.10;;;13.50;99.90;;;;;;5099248;28;20035;-75
2022/10/16 07:36:00;;;;;;;3.88;2.20;;;13.50;99.90;;;;;;5097251;28;20301;-76
2022/10/16 07:38:26;;;;;;;3.60;2.22;;;13.40;99.90;;;;;;5081398;28;20059;-76
2022/10/16 07:41:00;;;;;;;5.75;2.38;;;13.60;99.90;;;;;;5082403;28;20043;-76
2022/10/16 07:43:26;;;;;;;5.78;2.72;;;13.60;99.90;;;;;;5080302;28;20085;-76
2022/10/16 07:45:53;;;;;;;6.03;2.25;;;13.60;99.90;;;;;;5074048;28;20323;-77
2022/10/16 07:48:19;;;;;;;3.85;2.10;;;13.50;99.90;;;;;;5098240;28;20038;-76
2022/10/16 07:50:45;;;;;;;3.55;2.25;;;13.60;99.90;;;;;;5096929;28;20273;-76
2022/10/16 07:53:12;;;;;;;4.25;2.20;;;13.40;99.90;;;;;;5082899;28;20061;-76
2022/10/16 07:55:38;;;;;;;2.90;2.15;;;13.60;99.90;;;;;;5077146;28;20040;-76
2022/10/16 07:58:04;;;;;;;4.90;2.47;;;13.70;99.90;;;;;;5079991;28;20125;-76
2022/10/16 08:00:30;;;;;;;3.60;2.45;;;13.50;99.90;;;;;;5048878;28;20024;-76
2022/10/16 08:02:59;;;;;;;5.47;2.33;;;13.90;99.90;;;;;;5066200;28;20036;-76
2022/10/16 08:05:26;;;;;;;4.60;2.30;;;13.80;99.90;;;;;;5082851;28;20086;-76
2022/10/16 08:07:52;;;;;;;4.38;2.10;;;14.10;99.90;;;;;;5097915;28;20039;-77
2022/10/16 08:10:20;;;;;;;7.07;2.47;;;14.00;99.90;;;;;;5063151;28;20046;-77
2022/10/16 08:12:46;;;;;;;3.58;2.10;;;14.00;99.90;;;;;;5081427;28;20101;-76
2022/10/16 08:15:12;;;;;;;3.50;2.15;;;14.10;99.90;;;;;;5096084;28;20028;-76
2022/10/16 08:17:38;;;;;;;4.30;2.40;;;14.20;99.90;;;;;;5062089;28;20044;-76
2022/10/16 08:20:04;;;;;;;7.55;2.28;;;14.30;99.90;;;;;;5099108;28;20409;-76
2022/10/16 08:22:30;;;;;;;6.25;2.47;;;14.50;99.90;;;;;;5075482;28;20043;-76
2022/10/16 08:24:56;;;;;;;3.05;1.85;;;14.40;99.90;;;;;;5045801;28;20025;-76
2022/10/16 08:27:21;;;;;;;3.28;1.88;;;14.60;99.90;;;;;;5068994;28;20117;-76
2022/10/16 08:29:48;;;;;;;3.50;1.88;;;14.60;99.90;;;;;;5065436;28;20373;-76
2022/10/16 08:32:14;;;;;;;6.35;2.00;;;14.70;99.90;;;;;;5082613;28;20093;-76
2022/10/16 08:34:40;;;;;;;3.90;1.77;;;14.50;99.90;;;;;;5083547;28;20043;-76
2022/10/16 08:37:07;;;;;;;5.60;1.77;;;14.80;99.90;;;;;;5079330;28;20144;-76
2022/10/16 08:39:33;;;;;;;5.90;2.17;;;14.80;99.90;;;;;;5084769;28;20067;-76
2022/10/16 08:42:29;;;;;;;3.88;1.50;;;14.90;99.90;;;;;;5083370;28;20073;-76
2022/10/16 08:45:17;;;;;;;4.78;1.70;;;14.80;99.90;;;;;;5102599;28;20046;-76
2022/10/16 08:48:08;;;;;;;2.78;1.35;;;14.90;99.90;;;;;;5082164;28;20371;-76
2022/10/16 08:50:37;;;;;;;4.25;1.35;;;14.90;99.90;;;;;;5090772;28;20047;-76
2022/10/16 08:53:05;;;;;;;3.25;1.23;;;15.10;99.90;;;;;;5101463;28;20218;-76
2022/10/16 08:55:42;;;;;;;3.55;1.30;;;15.00;99.90;;;;;;5102689;28;20043;-76
2022/10/16 08:58:21;;;;;;;6.20;1.30;;;15.10;99.90;;;;;;5101890;28;20039;-76
2022/10/16 09:00:54;;;;;;;4.20;1.27;;;15.20;99.90;;;;;;5091559;28;20294;-76
2022/10/16 09:03:58;;;;;;;3.03;1.50;;;15.20;99.90;;;;;;5098155;28;20032;-76
2022/10/16 09:06:35;;;;;;;3.28;1.38;;;15.20;99.90;;;;;;5064363;28;20123;-76
2022/10/16 09:09:06;;;;;;;4.03;1.52;;;15.20;99.90;;;;;;5091025;28;20036;-76
2022/10/16 09:11:53;;;;;;;4.80;1.30;;;15.20;99.90;;;;;;5078903;28;20032;-76
2022/10/16 09:14:36;;;;;;;4.07;1.73;;;15.60;99.90;;;;;;5092822;28;20095;-75
2022/10/16 09:17:20;;;;;;;5.00;1.63;;;15.30;99.90;;;;;;5101287;28;20052;-75
2022/10/16 09:20:08;;;;;;;5.97;1.38;;;15.40;99.90;;;;;;5085378;28;20020;-74
2022/10/16 09:22:34;;;;;;;4.47;1.50;;;16.00;99.90;;;;;;5073343;28;20040;-75
2022/10/16 09:25:10;;;;;;;4.03;1.50;;;15.90;99.90;;;;;;5080136;28;20062;-76
2022/10/16 09:27:36;;;;;;;5.30;1.30;;;15.70;99.90;;;;;;5099077;28;20038;-75
2022/10/16 09:30:11;;;;;;;5.40;1.40;;;15.80;99.90;;;;;;5064454;28;20032;-76
2022/10/16 09:32:38;;;;;;;3.15;1.25;;;15.90;99.90;;;;;;5081500;28;20335;-76
2022/10/16 09:35:15;;;;;;;4.68;1.42;;;15.90;99.90;;;;;;5101586;28;20055;-76
2022/10/16 09:37:44;;;;;;;2.88;1.40;;;16.00;99.90;;;;;;5102033;28;20048;-76
2022/10/16 09:40:26;;;;;;;3.55;1.40;;;15.90;99.90;;;;;;5096829;28;20192;-76
2022/10/16 09:43:03;;;;;;;4.93;1.38;;;16.10;99.90;;;;;;5102508;28;20164;-76
2022/10/16 09:45:29;;;;;;;5.45;1.30;;;15.90;99.90;;;;;;5101895;28;20169;-76
2022/10/16 09:47:54;;;;;;;5.55;2.22;;;16.00;99.90;;;;;;5084430;28;20315;-76
2022/10/16 09:50:28;;;;;;;9.32;2.33;;;16.00;99.90;;;;;;5098745;28;20079;-76
2022/10/16 09:53:10;;;;;;;4.60;1.60;;;15.50;99.90;;;;;;5101323;28;20070;-75
2022/10/16 09:55:36;;;;;;;6.15;1.80;;;15.70;99.90;;;;;;5083587;28;20065;-76
2022/10/16 09:58:01;;;;;;;6.30;1.40;;;15.80;99.90;;;;;;5084644;28;20035;-76
2022/10/16 10:00:27;;;;;;;10.60;2.13;;;15.90;99.90;;;;;;5084559;28;20020;-76
2022/10/16 10:02:54;;;;;;;6.65;1.63;;;16.00;99.90;;;;;;5083759;28;20032;-76
2022/10/16 10:05:27;;;;;;;9.73;1.90;;;16.00;99.90;;;;;;5085345;28;20281;-76
2022/10/16 10:07:58;;;;;;;6.55;1.63;;;16.00;99.90;;;;;;5095752;28;20036;-76
2022/10/16 10:10:30;;;;;;;9.48;1.92;;;16.10;99.90;;;;;;5097651;28;20039;-77
2022/10/16 10:12:56;;;;;;;9.68;2.05;;;16.20;99.90;;;;;;5075606;28;20036;-76
2022/10/16 10:15:24;;;;;;;7.78;2.00;;;16.30;99.90;;;;;;5084536;28;20040;-76
2022/10/16 10:17:52;;;;;;;11.27;1.85;;;16.50;99.90;;;;;;5078677;28;20059;-77
2022/10/16 10:20:34;;;;;;;8.95;2.65;;;16.60;99.90;;;;;;5084633;28;20024;-77
2022/10/16 10:23:01;;;;;;;11.55;2.47;;;16.50;99.90;;;;;;5093497;28;20122;-77
2022/10/16 10:26:07;;;;;;;12.65;2.38;;;16.70;99.90;;;;;;5100408;28;20059;-76
2022/10/16 10:28:59;;;;;;;10.35;3.25;;;16.60;99.90;;;;;;5079923;28;20024;-76
2022/10/16 10:31:50;;;;;;;3.15;2.03;;;16.80;99.90;;;;;;5091411;28;20326;-75
2022/10/16 10:34:34;;;;;;;7.38;1.85;;;16.90;99.90;;;;;;5100559;28;20044;-77
2022/10/16 10:37:32;;;;;;;10.13;1.75;;;16.70;99.90;;;;;;5084893;28;20048;-77
2022/10/16 10:40:23;;;;;;;8.05;1.70;;;16.80;99.90;;;;;;5087451;28;20107;-75
2022/10/16 10:43:24;;;;;;;6.45;1.60;;;16.60;99.90;;;;;;5080677;28;20064;-78
2022/10/16 10:46:03;;;;;;;7.57;1.70;;;16.50;99.90;;;;;;5089577;28;20257;-77
2022/10/16 10:48:42;;;;;;;8.50;1.70;;;16.50;99.90;;;;;;5099659;28;20115;-77
2022/10/16 10:51:13;;;;;;;8.57;1.73;;;16.50;99.90;;;;;;5083214;28;20230;-77
2022/10/16 10:53:58;;;;;;;4.65;2.00;;;16.60;99.90;;;;;;5081403;28;20028;-76
2022/10/16 10:56:41;;;;;;;;;;;16.60;99.90;;;;;;5070556;28;20111;-76
2022/10/16 10:59:53;;;;;;;10.73;2.30;;;16.60;99.90;;;;;;5083285;28;20380;-77
2022/10/16 11:02:31;;;;;;;10.70;2.33;;;16.40;99.90;;;;;;5064124;28;20397;-77
2022/10/16 11:04:57;;;;;;;10.45;2.28;;;16.30;99.90;;;;;;5098424;28;20038;-76
2022/10/16 11:07:39;;;;;;;7.65;1.88;;;16.40;99.90;;;;;;5099967;28;20284;-76
2022/10/16 11:10:26;;;;;;;6.75;1.88;;;16.50;99.90;;;;;;5091880;28;20341;-77
2022/10/16 11:12:58;;;;;;;13.18;2.83;;;16.40;99.90;;;;;;5100474;28;20076;-77
2022/10/16 11:15:30;;;;;;;8.55;1.77;;;16.50;99.90;;;;;;5099767;28;20032;-77
2022/10/16 11:18:20;;;;;;;7.30;1.95;;;16.40;99.90;;;;;;5095938;28;20208;-76
2022/10/16 11:20:51;;;;;;;10.15;2.08;;;16.40;99.90;;;;;;5077161;28;20082;-77
2022/10/16 11:23:41;;;;;;;12.15;1.85;;;16.30;99.90;;;;;;5100245;28;20028;-76
2022/10/16 11:26:42;;;;;;;11.38;2.20;;;16.20;99.90;;;;;;5105439;28;20048;-75
2022/10/16 11:29:17;;;;;;;10.00;1.85;;;17.00;99.90;;;;;;5066390;28;20092;-75
2022/10/16 11:32:19;;;;;;;6.43;1.90;;;16.00;99.90;;;;;;5082145;28;20035;-77
2022/10/16 11:34:51;;;;;;;9.02;1.73;;;16.10;99.90;;;;;;5088332;28;20100;-78
2022/10/16 11:37:23;;;;;;;9.15;1.52;;;16.10;99.90;;;;;;5098353;28;20366;-76
2022/10/16 11:39:51;;;;;;;7.30;1.60;;;16.10;99.90;;;;;;5089572;28;20039;-76
2022/10/16 11:42:22;;;;;;;8.25;1.50;;;16.20;99.90;;;;;;5107705;28;20036;-77
2022/10/16 11:44:50;;;;;;;7.18;2.15;;;16.30;99.90;;;;;;5093716;28;20067;-77
2022/10/16 11:47:57;;;;;;;6.85;1.55;;;16.10;99.90;;;;;;5090279;28;20099;-77
2022/10/16 11:50:28;;;;;;;7.45;1.98;;;16.20;99.90;;;;;;5098735;28;20070;-77
2022/10/16 11:53:12;;;;;;;10.55;2.15;;;16.20;99.90;;;;;;5097325;28;20073;-75
2022/10/16 11:55:43;;;;;;;4.88;1.45;;;16.30;99.90;;;;;;5098670;28;20322;-76
2022/10/16 11:58:41;;;;;;;8.15;1.70;;;16.30;99.90;;;;;;5103896;28;20044;-76
2022/10/16 12:01:09;;;;;;;7.13;1.65;;;16.20;99.90;;;;;;5088206;28;20218;-77
2022/10/16 12:04:03;;;;;;;7.00;1.73;;;16.20;99.90;;;;;;5094583;28;20329;-76
2022/10/16 12:06:55;;;;;;;6.60;1.20;;;16.30;99.90;;;;;;5098679;28;20032;-77
2022/10/16 12:09:29;;;;;;;8.27;1.50;;;16.30;99.90;;;;;;5081521;28;20028;-77
2022/10/16 12:11:55;;;;;;;7.53;1.60;;;16.30;99.90;;;;;;5098637;28;20032;-77
2022/10/16 12:14:35;;;;;;;6.50;2.08;;;16.20;99.90;;;;;;5083170;28;20226;-77
2022/10/16 12:17:20;;;;;;;8.48;1.85;;;16.30;99.90;;;;;;5098190;28;20040;-76
2022/10/16 12:19:58;;;;;;;8.35;1.77;;;16.20;99.90;;;;;;5097922;28;20095;-77
2022/10/16 12:22:27;;;;;;;11.35;2.22;;;16.40;99.90;;;;;;5099666;28;20024;-75
2022/10/16 12:24:53;;;;;;;8.50;1.92;;;16.30;99.90;;;;;;5105048;28;20032;-75
2022/10/16 12:27:32;;;;;;;10.27;2.00;;;16.40;99.90;;;;;;5082194;28;20043;-75
2022/10/16 12:30:05;;;;;;;7.63;1.80;;;16.50;99.90;;;;;;5097874;28;20036;-76
2022/10/16 12:32:34;;;;;;;5.70;1.70;;;16.40;99.90;;;;;;5093405;28;20039;-76
2022/10/16 12:35:01;;;;;;;9.07;2.08;;;16.50;99.90;;;;;;5081239;28;20192;-77
2022/10/16 12:37:38;;;;;;;6.60;1.75;;;16.40;99.90;;;;;;5094933;28;20044;-76
2022/10/16 12:40:13;;;;;;;10.57;2.40;;;16.40;99.90;;;;;;5098512;28;20051;-77
2022/10/16 12:42:39;;;;;;;16.10;2.05;;;16.40;99.90;;;;;;5095437;28;20028;-76
2022/10/16 12:45:32;;;;;;;11.27;1.80;;;16.30;99.90;;;;;;5079769;28;20032;-76
2022/10/16 12:47:59;;;;;;;8.57;2.20;;;16.20;99.90;;;;;;5099424;28;20036;-76
2022/10/16 12:50:37;;;;;;;5.70;1.38;;;16.10;99.90;;;;;;5098803;28;20071;-76
2022/10/16 12:53:17;;;;;;;7.45;1.80;;;16.00;99.90;;;;;;5098905;28;20242;-76
2022/10/16 12:55:49;;;;;;;8.23;1.77;;;15.90;99.90;;;;;;5098294;28;20095;-77
2022/10/16 12:58:33;;;;;;;10.77;2.20;;;15.80;99.90;;;;;;5092566;28;20032;-76
2022/10/16 13:01:13;;;;;;;11.25;1.73;;;15.80;99.90;;;;;;5081778;28;20039;-77
2022/10/16 13:03:50;;;;;;;10.05;2.00;;;15.60;99.90;;;;;;5093514;28;20282;-77
2022/10/16 13:06:38;;;;;;;8.20;2.25;;;15.60;99.90;;;;;;5095216;28;20069;-76
2022/10/16 13:09:21;;;;;;;9.02;2.20;;;15.60;99.90;;;;;;5097105;28;20024;-76